Hauptseite
METAR-TAF:

METAR-TAF

Flughäfen :

Petawawa, Ontario, Kanada

Breite: 45-57N, Länge: 077-19W, Höhe: 130 m

Beobachtung

Neuester Wetterbericht von vor 9 Stunden und 51 Minuten, um 03:14 UTC
Wind 15 kt aus Nord, Böen bis zu 21 kt
Temperatur -14°C
Luftfeuchtigkeit 55%
Luftdruck 1011 hPa
Sichtweite: 19.3 km
Leicht bewölkt in der Höhe von 24000 ft

METAR: CYWA 240314Z 35015G21KT 12SM FEW240 M14/M21 A2986 RMK CI2 DENSITY ALT -3093FT LAST OBS /NEXT 261200 UTC SLP120

Zeit: 08:05 (13:05 UTC)

Prognose

Neuester Wetterbericht von vor 13 Stunden und 25 Minuten, um 23:40 UTC
Gültige Prognose vom 24 um 00 UTC bis 24 um 24 UTC
Wind 12 kt aus Nord/Nordwest
Sichtweite: 10 km
Himmel klar
Übergehend zu
vom 24 um 06 UTC bis 24 um 08 UTC
Wind 5 kt aus Nord/Nordwest

TAF: CYWA 232340Z 2400/2424 34012KT P6SM SKC BECMG 2406/2408 33005KT RMK NXT FCST BY 240600Z

Wetterbeobachtungen und Prognosen von mehr als 4000 Flughäfen (METAR und TAF Bericht).

Die verfügbaren Stationen werden durch gelbe und rote Markierungen auf der Karte dargestellt.

Führen Sie die Maus auf sie, um den Namen der Station zu sehen.

Darauf klicken, um die Beobachtung von Wetterbeobachtungen und Prognosen zu sehen.

Um die Karte zu ändern : klicken Sie auf den grünen Tasten mit einem schwarzen Kreuz Zum Vergrößern, auf den grünen Button mit einem Gedankenstrich zu verkleinern, oder auf die grünen Pfeile für benachbarte Karten.


METAR-TAF: